KJBR

Jonesboro Municipal Airport

Jonesboro, Arkansas, USA
METAR KJBR 231053Z AUTO 00000KT 9SM CLR 20/20 A3005 RMK AO2 SLP174 T02000200 $
Observed Flight Rules
May-23 @ 10:53 UTC (16 minutes ago) Visual Flight Rules
Visibility Clouds
9 miles
  • Clear skies
Temperatures Readings
Current 20°C / 68°F
Dewpoint 20°C / 68°F
Humidity 100%
Altimeter 30.05" Hg
Pressure 1017.4 hPa
Elevation 79
METAR KJBR 231053Z AUTO 00000KT 9SM CLR 20/20 A3005 RMK AO2 SLP174 T02000200 $
Observed Flight Rules
May-23 @ 10:53 UTC
(16 minutes ago)
VFR
Clouds
  • Clear skies
Temperature Dewpoint
20°C / 68°F 20°C / 68°F
Humidity Altimeter Pressure
100% 30.05" Hg 1017.4 hPa